sensor_id;sensor_type;location;lat;lon;timestamp;P1;durP1;ratioP1;P2;durP2;ratioP2
79363;SDS011;68832;53.112;17.980;2023-05-01T00:01:49;17.90;;;8.60;;
79363;SDS011;68832;53.112;17.980;2023-05-01T00:04:15;12.20;;;6.20;;
79363;SDS011;68832;53.112;17.980;2023-05-01T00:06:42;11.90;;;6.80;;
79363;SDS011;68832;53.112;17.980;2023-05-01T00:09:09;15.70;;;9.70;;
79363;SDS011;68832;53.112;17.980;2023-05-01T00:11:36;16.90;;;9.80;;
79363;SDS011;68832;53.112;17.980;2023-05-01T00:14:03;16.10;;;9.70;;
79363;SDS011;68832;53.112;17.980;2023-05-01T00:16:30;13.50;;;8.60;;
79363;SDS011;68832;53.112;17.980;2023-05-01T00:18:56;10.90;;;7.60;;
79363;SDS011;68832;53.112;17.980;2023-05-01T00:21:23;9.70;;;5.40;;
79363;SDS011;68832;53.112;17.980;2023-05-01T00:23:50;8.70;;;5.40;;
79363;SDS011;68832;53.112;17.980;2023-05-01T00:26:17;9.50;;;5.40;;
79363;SDS011;68832;53.112;17.980;2023-05-01T00:28:45;14.90;;;5.30;;
79363;SDS011;68832;53.112;17.980;2023-05-01T00:31:12;9.10;;;5.10;;
79363;SDS011;68832;53.112;17.980;2023-05-01T00:33:38;13.80;;;8.40;;
79363;SDS011;68832;53.112;17.980;2023-05-01T00:36:06;16.20;;;10.20;;
79363;SDS011;68832;53.112;17.980;2023-05-01T00:38:32;16.40;;;9.60;;
79363;SDS011;68832;53.112;17.980;2023-05-01T00:40:59;21.70;;;10.70;;
79363;SDS011;68832;53.112;17.980;2023-05-01T00:43:26;12.80;;;6.60;;
79363;SDS011;68832;53.112;17.980;2023-05-01T00:45:52;16.40;;;7.20;;
79363;SDS011;68832;53.112;17.980;2023-05-01T00:48:19;17.20;;;8.20;;
79363;SDS011;68832;53.112;17.980;2023-05-01T00:50:46;16.50;;;7.80;;
79363;SDS011;68832;53.112;17.980;2023-05-01T00:53:14;20.30;;;8.80;;
79363;SDS011;68832;53.112;17.980;2023-05-01T00:55:41;20.80;;;9.20;;
79363;SDS011;68832;53.112;17.980;2023-05-01T00:58:09;19.30;;;9.60;;
79363;SDS011;68832;53.112;17.980;2023-05-01T01:00:37;22.20;;;11.60;;
79363;SDS011;68832;53.112;17.980;2023-05-01T01:03:04;24.70;;;12.40;;
79363;SDS011;68832;53.112;17.980;2023-05-01T01:05:31;27.00;;;11.00;;
79363;SDS011;68832;53.112;17.980;2023-05-01T01:08:10;25.80;;;11.60;;
79363;SDS011;68832;53.112;17.980;2023-05-01T01:10:52;21.70;;;11.70;;
79363;SDS011;68832;53.112;17.980;2023-05-01T01:13:32;19.40;;;9.50;;
79363;SDS011;68832;53.112;17.980;2023-05-01T01:16:30;23.10;;;11.40;;
79363;SDS011;68832;53.112;17.980;2023-05-01T01:19:09;20.70;;;8.50;;
79363;SDS011;68832;53.112;17.980;2023-05-01T01:21:43;16.50;;;9.00;;
79363;SDS011;68832;53.112;17.980;2023-05-01T01:24:26;23.50;;;13.70;;
79363;SDS011;68832;53.112;17.980;2023-05-01T01:33:11;19.80;;;12.60;;
79363;SDS011;68832;53.112;17.980;2023-05-01T01:36:01;21.50;;;11.10;;
79363;SDS011;68832;53.112;17.980;2023-05-01T01:41:20;23.90;;;11.90;;
79363;SDS011;68832;53.112;17.980;2023-05-01T01:43:59;19.10;;;10.70;;
79363;SDS011;68832;53.112;17.980;2023-05-01T01:46:27;19.90;;;9.40;;
79363;SDS011;68832;53.112;17.980;2023-05-01T01:48:54;17.30;;;9.20;;
79363;SDS011;68832;53.112;17.980;2023-05-01T01:51:21;15.50;;;7.20;;
79363;SDS011;68832;53.112;17.980;2023-05-01T01:53:50;21.50;;;10.00;;
79363;SDS011;68832;53.112;17.980;2023-05-01T01:58:47;15.10;;;7.80;;
79363;SDS011;68832;53.112;17.980;2023-05-01T02:01:15;16.30;;;9.70;;
79363;SDS011;68832;53.112;17.980;2023-05-01T02:03:42;18.30;;;10.60;;
79363;SDS011;68832;53.112;17.980;2023-05-01T02:06:10;15.80;;;9.80;;
79363;SDS011;68832;53.112;17.980;2023-05-01T02:08:38;23.80;;;11.80;;
79363;SDS011;68832;53.112;17.980;2023-05-01T02:11:07;25.10;;;12.00;;
79363;SDS011;68832;53.112;17.980;2023-05-01T02:13:36;24.40;;;12.40;;
79363;SDS011;68832;53.112;17.980;2023-05-01T02:16:04;21.60;;;11.20;;
79363;SDS011;68832;53.112;17.980;2023-05-01T02:18:32;18.80;;;10.10;;
79363;SDS011;68832;53.112;17.980;2023-05-01T02:20:59;18.00;;;9.00;;
79363;SDS011;68832;53.112;17.980;2023-05-01T02:23:26;19.00;;;9.50;;
79363;SDS011;68832;53.112;17.980;2023-05-01T02:25:54;16.20;;;9.70;;
79363;SDS011;68832;53.112;17.980;2023-05-01T02:28:23;16.40;;;8.60;;
79363;SDS011;68832;53.112;17.980;2023-05-01T02:30:50;17.80;;;9.00;;
79363;SDS011;68832;53.112;17.980;2023-05-01T02:33:18;19.90;;;12.00;;
79363;SDS011;68832;53.112;17.980;2023-05-01T02:35:44;19.20;;;9.30;;
79363;SDS011;68832;53.112;17.980;2023-05-01T02:38:16;23.70;;;11.30;;
79363;SDS011;68832;53.112;17.980;2023-05-01T02:40:44;22.90;;;12.10;;
79363;SDS011;68832;53.112;17.980;2023-05-01T02:43:13;31.00;;;15.60;;
79363;SDS011;68832;53.112;17.980;2023-05-01T02:45:43;24.70;;;11.80;;
79363;SDS011;68832;53.112;17.980;2023-05-01T02:48:12;22.50;;;12.30;;
79363;SDS011;68832;53.112;17.980;2023-05-01T02:50:43;21.60;;;10.00;;
79363;SDS011;68832;53.112;17.980;2023-05-01T02:53:11;16.10;;;8.70;;
79363;SDS011;68832;53.112;17.980;2023-05-01T02:55:47;16.20;;;7.90;;
79363;SDS011;68832;53.112;17.980;2023-05-01T02:58:18;17.30;;;9.60;;
79363;SDS011;68832;53.112;17.980;2023-05-01T03:00:47;20.70;;;13.50;;
79363;SDS011;68832;53.112;17.980;2023-05-01T03:03:15;29.00;;;13.90;;
79363;SDS011;68832;53.112;17.980;2023-05-01T03:05:42;25.80;;;13.60;;
79363;SDS011;68832;53.112;17.980;2023-05-01T03:08:09;21.40;;;11.40;;
79363;SDS011;68832;53.112;17.980;2023-05-01T03:10:40;22.80;;;11.70;;
79363;SDS011;68832;53.112;17.980;2023-05-01T03:13:09;24.60;;;14.10;;
79363;SDS011;68832;53.112;17.980;2023-05-01T03:15:37;21.80;;;11.00;;
79363;SDS011;68832;53.112;17.980;2023-05-01T03:18:04;20.20;;;9.80;;
79363;SDS011;68832;53.112;17.980;2023-05-01T03:20:32;17.10;;;9.40;;
79363;SDS011;68832;53.112;17.980;2023-05-01T03:22:59;14.60;;;7.70;;
79363;SDS011;68832;53.112;17.980;2023-05-01T03:25:27;13.90;;;8.50;;
79363;SDS011;68832;53.112;17.980;2023-05-01T03:27:54;13.40;;;5.90;;
79363;SDS011;68832;53.112;17.980;2023-05-01T03:30:20;12.20;;;6.40;;
79363;SDS011;68832;53.112;17.980;2023-05-01T03:32:47;9.50;;;6.20;;
79363;SDS011;68832;53.112;17.980;2023-05-01T03:35:18;12.20;;;6.40;;
79363;SDS011;68832;53.112;17.980;2023-05-01T03:37:45;11.10;;;6.40;;
79363;SDS011;68832;53.112;17.980;2023-05-01T03:40:16;11.50;;;6.60;;
79363;SDS011;68832;53.112;17.980;2023-05-01T03:43:23;11.20;;;5.70;;
79363;SDS011;68832;53.112;17.980;2023-05-01T03:45:51;18.20;;;6.60;;
79363;SDS011;68832;53.112;17.980;2023-05-01T03:48:18;15.40;;;8.80;;
79363;SDS011;68832;53.112;17.980;2023-05-01T03:50:45;18.30;;;9.60;;
79363;SDS011;68832;53.112;17.980;2023-05-01T03:53:12;15.40;;;10.50;;
79363;SDS011;68832;53.112;17.980;2023-05-01T03:55:39;24.20;;;11.80;;
79363;SDS011;68832;53.112;17.980;2023-05-01T03:58:06;29.90;;;14.10;;
79363;SDS011;68832;53.112;17.980;2023-05-01T04:00:33;17.20;;;9.10;;
79363;SDS011;68832;53.112;17.980;2023-05-01T04:03:00;16.10;;;9.50;;
79363;SDS011;68832;53.112;17.980;2023-05-01T04:05:28;19.70;;;10.40;;
79363;SDS011;68832;53.112;17.980;2023-05-01T04:07:58;19.20;;;8.90;;
79363;SDS011;68832;53.112;17.980;2023-05-01T04:10:25;15.30;;;9.10;;
79363;SDS011;68832;53.112;17.980;2023-05-01T04:12:59;24.80;;;11.40;;
79363;SDS011;68832;53.112;17.980;2023-05-01T04:15:25;29.30;;;12.30;;
79363;SDS011;68832;53.112;17.980;2023-05-01T04:17:52;22.30;;;11.70;;
79363;SDS011;68832;53.112;17.980;2023-05-01T04:22:48;14.10;;;8.20;;
79363;SDS011;68832;53.112;17.980;2023-05-01T04:25:17;13.50;;;8.00;;
79363;SDS011;68832;53.112;17.980;2023-05-01T04:27:44;12.90;;;7.40;;
79363;SDS011;68832;53.112;17.980;2023-05-01T04:30:12;12.10;;;7.70;;
79363;SDS011;68832;53.112;17.980;2023-05-01T04:32:39;14.20;;;10.10;;
79363;SDS011;68832;53.112;17.980;2023-05-01T04:35:06;14.00;;;8.00;;
79363;SDS011;68832;53.112;17.980;2023-05-01T04:37:35;15.90;;;7.60;;
79363;SDS011;68832;53.112;17.980;2023-05-01T04:40:03;15.10;;;7.70;;
79363;SDS011;68832;53.112;17.980;2023-05-01T04:42:31;24.20;;;12.60;;
79363;SDS011;68832;53.112;17.980;2023-05-01T04:44:58;18.60;;;10.70;;
79363;SDS011;68832;53.112;17.980;2023-05-01T04:47:32;15.10;;;10.00;;
79363;SDS011;68832;53.112;17.980;2023-05-01T04:49:59;17.80;;;9.90;;
79363;SDS011;68832;53.112;17.980;2023-05-01T04:52:27;18.10;;;11.00;;
79363;SDS011;68832;53.112;17.980;2023-05-01T04:54:57;18.50;;;11.10;;
79363;SDS011;68832;53.112;17.980;2023-05-01T04:57:25;20.00;;;10.30;;
79363;SDS011;68832;53.112;17.980;2023-05-01T04:59:53;19.70;;;10.80;;
79363;SDS011;68832;53.112;17.980;2023-05-01T05:02:19;20.10;;;9.70;;
79363;SDS011;68832;53.112;17.980;2023-05-01T05:04:46;20.30;;;10.30;;
79363;SDS011;68832;53.112;17.980;2023-05-01T05:07:13;20.80;;;10.80;;
79363;SDS011;68832;53.112;17.980;2023-05-01T05:10:19;17.60;;;12.00;;
79363;SDS011;68832;53.112;17.980;2023-05-01T05:12:50;18.60;;;9.70;;
79363;SDS011;68832;53.112;17.980;2023-05-01T05:15:17;16.80;;;8.70;;
79363;SDS011;68832;53.112;17.980;2023-05-01T05:17:44;15.10;;;9.80;;
79363;SDS011;68832;53.112;17.980;2023-05-01T05:20:11;13.20;;;7.20;;
79363;SDS011;68832;53.112;17.980;2023-05-01T05:22:38;13.90;;;6.10;;
79363;SDS011;68832;53.112;17.980;2023-05-01T05:25:21;11.20;;;7.50;;
79363;SDS011;68832;53.112;17.980;2023-05-01T05:27:47;11.20;;;5.50;;
79363;SDS011;68832;53.112;17.980;2023-05-01T05:30:14;12.00;;;5.50;;
79363;SDS011;68832;53.112;17.980;2023-05-01T05:32:42;11.90;;;6.30;;
79363;SDS011;68832;53.112;17.980;2023-05-01T05:35:10;14.00;;;6.30;;
79363;SDS011;68832;53.112;17.980;2023-05-01T05:37:37;10.70;;;6.60;;
79363;SDS011;68832;53.112;17.980;2023-05-01T05:40:04;9.20;;;5.50;;
79363;SDS011;68832;53.112;17.980;2023-05-01T05:42:35;9.80;;;4.10;;
79363;SDS011;68832;53.112;17.980;2023-05-01T05:45:05;10.00;;;5.10;;
79363;SDS011;68832;53.112;17.980;2023-05-01T05:47:32;10.20;;;4.70;;
79363;SDS011;68832;53.112;17.980;2023-05-01T05:50:00;10.60;;;4.70;;
79363;SDS011;68832;53.112;17.980;2023-05-01T05:52:27;11.50;;;5.20;;
79363;SDS011;68832;53.112;17.980;2023-05-01T05:54:54;9.70;;;4.40;;
79363;SDS011;68832;53.112;17.980;2023-05-01T05:57:21;7.00;;;3.80;;
79363;SDS011;68832;53.112;17.980;2023-05-01T05:59:49;6.30;;;3.70;;
79363;SDS011;68832;53.112;17.980;2023-05-01T06:02:17;9.40;;;4.30;;
79363;SDS011;68832;53.112;17.980;2023-05-01T06:04:44;7.40;;;4.70;;
79363;SDS011;68832;53.112;17.980;2023-05-01T06:07:12;7.90;;;3.20;;
79363;SDS011;68832;53.112;17.980;2023-05-01T06:09:38;10.30;;;4.10;;
79363;SDS011;68832;53.112;17.980;2023-05-01T06:17:00;6.50;;;2.60;;
79363;SDS011;68832;53.112;17.980;2023-05-01T06:19:27;6.10;;;2.70;;
79363;SDS011;68832;53.112;17.980;2023-05-01T06:22:02;9.60;;;3.60;;
79363;SDS011;68832;53.112;17.980;2023-05-01T06:24:31;6.10;;;3.50;;
79363;SDS011;68832;53.112;17.980;2023-05-01T06:29:27;8.30;;;4.00;;
79363;SDS011;68832;53.112;17.980;2023-05-01T06:31:53;6.50;;;3.40;;
79363;SDS011;68832;53.112;17.980;2023-05-01T06:34:21;6.70;;;4.10;;
79363;SDS011;68832;53.112;17.980;2023-05-01T06:36:52;9.30;;;4.10;;
79363;SDS011;68832;53.112;17.980;2023-05-01T06:39:18;10.10;;;4.10;;
79363;SDS011;68832;53.112;17.980;2023-05-01T06:41:45;9.10;;;5.40;;
79363;SDS011;68832;53.112;17.980;2023-05-01T06:44:14;11.20;;;4.90;;
79363;SDS011;68832;53.112;17.980;2023-05-01T06:46:41;9.20;;;5.10;;
79363;SDS011;68832;53.112;17.980;2023-05-01T06:49:08;9.50;;;4.30;;
79363;SDS011;68832;53.112;17.980;2023-05-01T06:51:35;7.70;;;4.30;;
79363;SDS011;68832;53.112;17.980;2023-05-01T06:54:02;11.90;;;4.80;;
79363;SDS011;68832;53.112;17.980;2023-05-01T06:56:29;12.10;;;4.50;;
79363;SDS011;68832;53.112;17.980;2023-05-01T06:58:57;7.20;;;4.30;;
79363;SDS011;68832;53.112;17.980;2023-05-01T07:01:24;12.40;;;4.90;;
79363;SDS011;68832;53.112;17.980;2023-05-01T07:03:51;7.90;;;4.80;;
79363;SDS011;68832;53.112;17.980;2023-05-01T07:06:17;10.10;;;4.70;;
79363;SDS011;68832;53.112;17.980;2023-05-01T07:08:44;9.00;;;4.50;;
79363;SDS011;68832;53.112;17.980;2023-05-01T07:11:11;8.60;;;5.30;;
79363;SDS011;68832;53.112;17.980;2023-05-01T07:13:38;9.50;;;4.70;;
79363;SDS011;68832;53.112;17.980;2023-05-01T07:16:05;10.80;;;5.50;;
79363;SDS011;68832;53.112;17.980;2023-05-01T07:18:33;10.50;;;4.60;;
79363;SDS011;68832;53.112;17.980;2023-05-01T07:21:00;8.40;;;4.20;;
79363;SDS011;68832;53.112;17.980;2023-05-01T07:23:27;10.10;;;4.80;;
79363;SDS011;68832;53.112;17.980;2023-05-01T07:25:54;8.50;;;4.40;;
79363;SDS011;68832;53.112;17.980;2023-05-01T07:28:21;8.00;;;4.10;;
79363;SDS011;68832;53.112;17.980;2023-05-01T07:30:48;7.00;;;4.30;;
79363;SDS011;68832;53.112;17.980;2023-05-01T07:33:15;9.00;;;3.70;;
79363;SDS011;68832;53.112;17.980;2023-05-01T07:35:41;8.50;;;4.90;;
79363;SDS011;68832;53.112;17.980;2023-05-01T07:38:08;7.80;;;3.60;;
79363;SDS011;68832;53.112;17.980;2023-05-01T07:40:35;11.00;;;4.40;;
79363;SDS011;68832;53.112;17.980;2023-05-01T07:43:02;9.60;;;4.40;;
79363;SDS011;68832;53.112;17.980;2023-05-01T07:45:29;9.60;;;3.90;;
79363;SDS011;68832;53.112;17.980;2023-05-01T07:47:56;7.80;;;3.90;;
79363;SDS011;68832;53.112;17.980;2023-05-01T07:50:23;8.70;;;3.50;;
79363;SDS011;68832;53.112;17.980;2023-05-01T07:52:51;7.80;;;3.40;;
79363;SDS011;68832;53.112;17.980;2023-05-01T07:55:20;7.90;;;3.60;;
79363;SDS011;68832;53.112;17.980;2023-05-01T07:57:47;7.30;;;3.00;;
79363;SDS011;68832;53.112;17.980;2023-05-01T08:00:14;6.10;;;2.80;;
79363;SDS011;68832;53.112;17.980;2023-05-01T08:02:42;5.50;;;2.40;;
79363;SDS011;68832;53.112;17.980;2023-05-01T08:05:09;4.50;;;2.30;;
79363;SDS011;68832;53.112;17.980;2023-05-01T08:07:36;8.60;;;2.30;;
79363;SDS011;68832;53.112;17.980;2023-05-01T08:10:03;7.40;;;2.40;;
79363;SDS011;68832;53.112;17.980;2023-05-01T08:12:31;4.10;;;2.20;;
79363;SDS011;68832;53.112;17.980;2023-05-01T08:14:58;6.00;;;2.30;;
79363;SDS011;68832;53.112;17.980;2023-05-01T08:17:24;4.30;;;1.90;;
79363;SDS011;68832;53.112;17.980;2023-05-01T08:19:51;4.30;;;2.40;;
79363;SDS011;68832;53.112;17.980;2023-05-01T08:22:22;5.80;;;1.50;;
79363;SDS011;68832;53.112;17.980;2023-05-01T08:24:49;6.60;;;2.10;;
79363;SDS011;68832;53.112;17.980;2023-05-01T08:27:16;5.60;;;2.00;;
79363;SDS011;68832;53.112;17.980;2023-05-01T08:29:43;3.90;;;1.70;;
79363;SDS011;68832;53.112;17.980;2023-05-01T08:32:10;4.10;;;1.60;;
79363;SDS011;68832;53.112;17.980;2023-05-01T08:34:37;5.20;;;1.60;;
79363;SDS011;68832;53.112;17.980;2023-05-01T08:37:04;6.80;;;1.80;;
79363;SDS011;68832;53.112;17.980;2023-05-01T08:39:31;2.70;;;1.40;;
79363;SDS011;68832;53.112;17.980;2023-05-01T08:41:58;5.10;;;1.80;;
79363;SDS011;68832;53.112;17.980;2023-05-01T08:44:24;5.60;;;1.80;;
79363;SDS011;68832;53.112;17.980;2023-05-01T08:47:11;7.20;;;1.80;;
79363;SDS011;68832;53.112;17.980;2023-05-01T08:49:43;6.20;;;3.70;;
79363;SDS011;68832;53.112;17.980;2023-05-01T08:52:11;3.10;;;1.30;;
79363;SDS011;68832;53.112;17.980;2023-05-01T08:54:41;5.80;;;1.20;;
79363;SDS011;68832;53.112;17.980;2023-05-01T08:57:09;3.20;;;1.30;;
79363;SDS011;68832;53.112;17.980;2023-05-01T08:59:37;4.70;;;1.30;;
79363;SDS011;68832;53.112;17.980;2023-05-01T09:02:05;3.90;;;1.20;;
79363;SDS011;68832;53.112;17.980;2023-05-01T09:04:34;2.40;;;0.90;;
79363;SDS011;68832;53.112;17.980;2023-05-01T09:07:03;3.40;;;1.30;;
79363;SDS011;68832;53.112;17.980;2023-05-01T09:09:31;5.50;;;1.70;;
79363;SDS011;68832;53.112;17.980;2023-05-01T09:12:00;3.50;;;1.20;;
79363;SDS011;68832;53.112;17.980;2023-05-01T09:14:31;3.90;;;1.40;;
79363;SDS011;68832;53.112;17.980;2023-05-01T09:16:58;4.70;;;1.90;;
79363;SDS011;68832;53.112;17.980;2023-05-01T09:19:25;4.80;;;2.90;;
79363;SDS011;68832;53.112;17.980;2023-05-01T09:21:52;4.50;;;1.50;;
79363;SDS011;68832;53.112;17.980;2023-05-01T09:24:23;3.70;;;1.30;;
79363;SDS011;68832;53.112;17.980;2023-05-01T09:26:51;4.90;;;1.70;;
79363;SDS011;68832;53.112;17.980;2023-05-01T09:32:18;3.50;;;1.20;;
79363;SDS011;68832;53.112;17.980;2023-05-01T09:34:47;4.70;;;1.40;;
79363;SDS011;68832;53.112;17.980;2023-05-01T09:40:01;3.20;;;1.60;;
79363;SDS011;68832;53.112;17.980;2023-05-01T09:42:37;5.20;;;1.10;;
79363;SDS011;68832;53.112;17.980;2023-05-01T09:45:06;3.90;;;1.30;;
79363;SDS011;68832;53.112;17.980;2023-05-01T09:47:42;7.70;;;2.90;;
79363;SDS011;68832;53.112;17.980;2023-05-01T09:50:11;5.10;;;0.80;;
79363;SDS011;68832;53.112;17.980;2023-05-01T09:52:54;3.90;;;1.30;;
79363;SDS011;68832;53.112;17.980;2023-05-01T09:55:21;3.00;;;0.90;;
79363;SDS011;68832;53.112;17.980;2023-05-01T09:57:49;2.60;;;1.00;;
79363;SDS011;68832;53.112;17.980;2023-05-01T10:00:16;4.00;;;1.20;;
79363;SDS011;68832;53.112;17.980;2023-05-01T10:02:47;3.40;;;1.20;;
79363;SDS011;68832;53.112;17.980;2023-05-01T10:05:15;4.40;;;1.40;;
79363;SDS011;68832;53.112;17.980;2023-05-01T10:07:58;2.70;;;1.10;;
79363;SDS011;68832;53.112;17.980;2023-05-01T10:12:54;3.10;;;0.90;;
79363;SDS011;68832;53.112;17.980;2023-05-01T10:15:21;6.00;;;3.00;;
79363;SDS011;68832;53.112;17.980;2023-05-01T10:17:48;3.20;;;1.20;;
79363;SDS011;68832;53.112;17.980;2023-05-01T10:20:18;3.40;;;1.40;;
79363;SDS011;68832;53.112;17.980;2023-05-01T10:22:46;2.30;;;0.70;;
79363;SDS011;68832;53.112;17.980;2023-05-01T10:25:14;5.00;;;0.90;;
79363;SDS011;68832;53.112;17.980;2023-05-01T10:27:42;4.90;;;1.50;;
79363;SDS011;68832;53.112;17.980;2023-05-01T10:30:09;3.40;;;1.30;;
79363;SDS011;68832;53.112;17.980;2023-05-01T10:32:36;1.70;;;0.60;;
79363;SDS011;68832;53.112;17.980;2023-05-01T10:35:06;2.40;;;0.80;;
79363;SDS011;68832;53.112;17.980;2023-05-01T10:37:38;5.00;;;1.20;;
79363;SDS011;68832;53.112;17.980;2023-05-01T10:46:25;4.50;;;1.00;;
79363;SDS011;68832;53.112;17.980;2023-05-01T10:48:52;4.40;;;1.40;;
79363;SDS011;68832;53.112;17.980;2023-05-01T10:51:20;3.10;;;0.80;;
79363;SDS011;68832;53.112;17.980;2023-05-01T10:59:04;3.60;;;0.80;;
79363;SDS011;68832;53.112;17.980;2023-05-01T11:01:35;5.10;;;1.40;;
79363;SDS011;68832;53.112;17.980;2023-05-01T11:06:30;1.90;;;0.70;;
79363;SDS011;68832;53.112;17.980;2023-05-01T11:08:57;2.50;;;1.00;;
79363;SDS011;68832;53.112;17.980;2023-05-01T11:19:08;3.70;;;1.20;;
79363;SDS011;68832;53.112;17.980;2023-05-01T11:21:36;10.20;;;1.80;;
79363;SDS011;68832;53.112;17.980;2023-05-01T11:24:06;2.20;;;0.80;;
79363;SDS011;68832;53.112;17.980;2023-05-01T11:26:36;4.60;;;1.00;;
79363;SDS011;68832;53.112;17.980;2023-05-01T11:29:06;5.30;;;1.60;;
79363;SDS011;68832;53.112;17.980;2023-05-01T11:34:00;3.50;;;1.50;;
79363;SDS011;68832;53.112;17.980;2023-05-01T11:36:27;3.40;;;1.80;;
79363;SDS011;68832;53.112;17.980;2023-05-01T11:38:56;4.90;;;2.90;;
79363;SDS011;68832;53.112;17.980;2023-05-01T11:41:25;4.10;;;1.90;;
79363;SDS011;68832;53.112;17.980;2023-05-01T11:43:54;5.70;;;1.80;;
79363;SDS011;68832;53.112;17.980;2023-05-01T11:46:23;5.90;;;1.90;;
79363;SDS011;68832;53.112;17.980;2023-05-01T11:48:57;6.90;;;2.60;;
79363;SDS011;68832;53.112;17.980;2023-05-01T11:51:27;5.70;;;2.20;;
79363;SDS011;68832;53.112;17.980;2023-05-01T11:56:27;5.80;;;2.00;;
79363;SDS011;68832;53.112;17.980;2023-05-01T11:58:55;6.40;;;2.10;;
79363;SDS011;68832;53.112;17.980;2023-05-01T12:01:33;7.30;;;1.80;;
79363;SDS011;68832;53.112;17.980;2023-05-01T12:04:01;6.00;;;2.20;;
79363;SDS011;68832;53.112;17.980;2023-05-01T12:09:15;3.20;;;1.50;;
79363;SDS011;68832;53.112;17.980;2023-05-01T12:11:46;7.00;;;3.10;;
79363;SDS011;68832;53.112;17.980;2023-05-01T12:14:14;3.50;;;2.30;;
79363;SDS011;68832;53.112;17.980;2023-05-01T12:16:42;6.60;;;2.50;;
79363;SDS011;68832;53.112;17.980;2023-05-01T12:19:11;4.40;;;1.80;;
79363;SDS011;68832;53.112;17.980;2023-05-01T12:21:39;5.50;;;2.10;;
79363;SDS011;68832;53.112;17.980;2023-05-01T12:24:15;5.50;;;2.40;;
79363;SDS011;68832;53.112;17.980;2023-05-01T12:26:43;7.20;;;2.70;;
79363;SDS011;68832;53.112;17.980;2023-05-01T12:29:10;8.00;;;3.20;;
79363;SDS011;68832;53.112;17.980;2023-05-01T12:31:47;6.30;;;2.90;;
79363;SDS011;68832;53.112;17.980;2023-05-01T12:34:15;9.80;;;3.00;;
79363;SDS011;68832;53.112;17.980;2023-05-01T12:36:50;6.30;;;2.30;;
79363;SDS011;68832;53.112;17.980;2023-05-01T12:39:19;6.20;;;2.30;;
79363;SDS011;68832;53.112;17.980;2023-05-01T12:41:47;6.30;;;2.20;;
79363;SDS011;68832;53.112;17.980;2023-05-01T12:46:54;6.90;;;2.70;;
79363;SDS011;68832;53.112;17.980;2023-05-01T12:49:22;8.60;;;2.30;;
79363;SDS011;68832;53.112;17.980;2023-05-01T12:51:50;6.50;;;2.50;;
79363;SDS011;68832;53.112;17.980;2023-05-01T12:54:38;4.70;;;2.50;;
79363;SDS011;68832;53.112;17.980;2023-05-01T12:59:44;4.80;;;2.00;;
79363;SDS011;68832;53.112;17.980;2023-05-01T13:02:12;5.90;;;2.80;;
79363;SDS011;68832;53.112;17.980;2023-05-01T13:04:43;7.20;;;3.00;;
79363;SDS011;68832;53.112;17.980;2023-05-01T13:07:17;8.40;;;4.40;;
79363;SDS011;68832;53.112;17.980;2023-05-01T13:09:51;8.00;;;2.40;;
79363;SDS011;68832;53.112;17.980;2023-05-01T13:12:23;5.20;;;2.60;;
79363;SDS011;68832;53.112;17.980;2023-05-01T13:14:51;6.40;;;3.50;;
79363;SDS011;68832;53.112;17.980;2023-05-01T13:17:30;9.50;;;5.10;;
79363;SDS011;68832;53.112;17.980;2023-05-01T13:20:01;6.60;;;2.70;;
79363;SDS011;68832;53.112;17.980;2023-05-01T13:25:00;4.50;;;2.50;;
79363;SDS011;68832;53.112;17.980;2023-05-01T13:27:29;5.20;;;2.40;;
79363;SDS011;68832;53.112;17.980;2023-05-01T13:29:56;7.60;;;2.80;;
79363;SDS011;68832;53.112;17.980;2023-05-01T13:32:24;8.40;;;3.30;;
79363;SDS011;68832;53.112;17.980;2023-05-01T13:34:51;10.90;;;4.70;;
79363;SDS011;68832;53.112;17.980;2023-05-01T13:37:19;7.90;;;3.00;;
79363;SDS011;68832;53.112;17.980;2023-05-01T13:39:49;6.00;;;2.60;;
79363;SDS011;68832;53.112;17.980;2023-05-01T13:42:19;7.70;;;2.80;;
79363;SDS011;68832;53.112;17.980;2023-05-01T13:44:50;7.60;;;3.90;;
79363;SDS011;68832;53.112;17.980;2023-05-01T13:47:18;4.40;;;1.60;;
79363;SDS011;68832;53.112;17.980;2023-05-01T13:49:45;5.00;;;1.80;;
79363;SDS011;68832;53.112;17.980;2023-05-01T13:52:14;4.60;;;2.50;;
79363;SDS011;68832;53.112;17.980;2023-05-01T13:54:42;7.40;;;2.70;;
79363;SDS011;68832;53.112;17.980;2023-05-01T13:57:10;5.50;;;2.50;;
79363;SDS011;68832;53.112;17.980;2023-05-01T13:59:41;5.70;;;2.90;;
79363;SDS011;68832;53.112;17.980;2023-05-01T14:05:14;6.50;;;2.90;;
79363;SDS011;68832;53.112;17.980;2023-05-01T14:07:49;8.40;;;2.80;;
79363;SDS011;68832;53.112;17.980;2023-05-01T14:10:20;6.40;;;2.50;;
79363;SDS011;68832;53.112;17.980;2023-05-01T14:12:48;7.00;;;2.70;;
79363;SDS011;68832;53.112;17.980;2023-05-01T14:15:16;5.80;;;3.20;;
79363;SDS011;68832;53.112;17.980;2023-05-01T14:17:43;8.10;;;3.60;;
79363;SDS011;68832;53.112;17.980;2023-05-01T14:20:10;9.30;;;2.30;;
79363;SDS011;68832;53.112;17.980;2023-05-01T14:22:45;4.20;;;2.30;;
79363;SDS011;68832;53.112;17.980;2023-05-01T14:25:34;6.50;;;2.90;;
79363;SDS011;68832;53.112;17.980;2023-05-01T14:28:03;8.40;;;3.40;;
79363;SDS011;68832;53.112;17.980;2023-05-01T14:30:32;5.00;;;2.50;;
79363;SDS011;68832;53.112;17.980;2023-05-01T14:33:12;6.90;;;2.50;;
79363;SDS011;68832;53.112;17.980;2023-05-01T14:35:49;6.90;;;3.10;;
79363;SDS011;68832;53.112;17.980;2023-05-01T14:38:19;5.90;;;2.60;;
79363;SDS011;68832;53.112;17.980;2023-05-01T14:40:47;5.60;;;2.70;;
79363;SDS011;68832;53.112;17.980;2023-05-01T14:43:18;6.10;;;2.30;;
79363;SDS011;68832;53.112;17.980;2023-05-01T14:45:46;5.50;;;2.40;;
79363;SDS011;68832;53.112;17.980;2023-05-01T14:48:21;5.40;;;2.50;;
79363;SDS011;68832;53.112;17.980;2023-05-01T14:50:49;3.00;;;1.70;;
79363;SDS011;68832;53.112;17.980;2023-05-01T14:53:17;5.80;;;2.60;;
79363;SDS011;68832;53.112;17.980;2023-05-01T14:55:44;5.50;;;2.30;;
79363;SDS011;68832;53.112;17.980;2023-05-01T14:58:12;10.40;;;2.70;;
79363;SDS011;68832;53.112;17.980;2023-05-01T15:00:38;6.50;;;2.90;;
79363;SDS011;68832;53.112;17.980;2023-05-01T15:03:05;7.20;;;2.20;;
79363;SDS011;68832;53.112;17.980;2023-05-01T15:05:32;14.50;;;2.70;;
79363;SDS011;68832;53.112;17.980;2023-05-01T15:07:59;4.50;;;2.00;;
79363;SDS011;68832;53.112;17.980;2023-05-01T15:10:26;6.80;;;1.50;;
79363;SDS011;68832;53.112;17.980;2023-05-01T15:12:54;6.10;;;1.80;;
79363;SDS011;68832;53.112;17.980;2023-05-01T15:15:21;5.70;;;2.30;;
79363;SDS011;68832;53.112;17.980;2023-05-01T15:17:47;2.70;;;1.70;;
79363;SDS011;68832;53.112;17.980;2023-05-01T15:20:14;10.00;;;2.60;;
79363;SDS011;68832;53.112;17.980;2023-05-01T15:22:41;5.30;;;1.90;;
79363;SDS011;68832;53.112;17.980;2023-05-01T15:25:08;8.40;;;1.80;;
79363;SDS011;68832;53.112;17.980;2023-05-01T15:27:36;8.10;;;1.90;;
79363;SDS011;68832;53.112;17.980;2023-05-01T15:30:03;3.80;;;1.70;;
79363;SDS011;68832;53.112;17.980;2023-05-01T15:32:31;3.90;;;2.30;;
79363;SDS011;68832;53.112;17.980;2023-05-01T15:34:57;6.00;;;1.80;;
79363;SDS011;68832;53.112;17.980;2023-05-01T15:37:24;12.60;;;2.70;;
79363;SDS011;68832;53.112;17.980;2023-05-01T15:39:51;5.50;;;2.10;;
79363;SDS011;68832;53.112;17.980;2023-05-01T15:42:18;5.50;;;2.10;;
79363;SDS011;68832;53.112;17.980;2023-05-01T15:44:46;6.90;;;2.30;;
79363;SDS011;68832;53.112;17.980;2023-05-01T15:47:13;4.10;;;1.60;;
79363;SDS011;68832;53.112;17.980;2023-05-01T15:49:40;5.50;;;2.80;;